Time,TemperatureF,DewpointF,PressureIn,WindDirection,WindDirectionDegrees,WindSpeedMPH,WindSpeedGustMPH,Humidity,HourlyPrecipIn,Conditions,Clouds,dailyrainin,SoftwareType,DateUTC
2013-03-21 00:00:00,39.0,26.3,29.77,North,356,12.7,12.7,60,0.00,CLR,SCT,0.00,WeatherDisplay:10.37,2013-03-21 04:00:00,
2013-03-21 00:05:00,38.9,26.6,29.78,North,10,5.8,5.8,61,0.00,FEW,SCT,0.00,WeatherDisplay:10.37,2013-03-21 04:05:00,
2013-03-21 00:10:00,38.8,26.5,29.78,ENE,76,3.5,3.5,61,0.00,FEW,SCT,0.00,WeatherDisplay:10.37,2013-03-21 04:10:00,
2013-03-21 00:15:00,38.6,26.7,29.78,East,85,1.1,1.1,62,0.00,FEW,SCT,0.00,WeatherDisplay:10.37,2013-03-21 04:15:00,
2013-03-21 00:20:00,38.4,26.5,29.78,SE,144,0.0,0.0,62,0.00,FEW,SCT,0.00,WeatherDisplay:10.37,2013-03-21 04:20:00,
2013-03-21 00:25:00,38.3,26.8,29.78,East,83,6.9,6.9,63,0.00,FEW,SCT,0.00,WeatherDisplay:10.37,2013-03-21 04:25:00,
2013-03-21 00:30:00,38.2,27.1,29.78,ENE,58,4.6,4.6,64,0.00,FEW,SCT,0.00,WeatherDisplay:10.37,2013-03-21 04:30:00,
2013-03-21 00:35:00,38.0,27.3,29.78,NNE,31,6.9,6.9,65,0.00,FEW,SCT,0.00,WeatherDisplay:10.37,2013-03-21 04:35:00,
2013-03-21 00:40:00,38.0,26.9,29.77,NE,37,9.2,9.2,64,0.00,FEW,SCT,0.00,WeatherDisplay:10.37,2013-03-21 04:40:00,
2013-03-21 00:45:00,37.5,26.4,29.77,NE,51,11.5,11.5,64,0.00,FEW,SCT,0.00,WeatherDisplay:10.37,2013-03-21 04:45:00,
2013-03-21 00:50:00,37.0,25.9,29.77,West,280,5.8,5.8,64,0.00,FEW,SCT,0.00,WeatherDisplay:10.37,2013-03-21 04:50:00,
2013-03-21 00:55:00,36.9,26.2,29.78,NE,45,6.9,6.9,65,0.00,FEW,SCT,0.00,WeatherDisplay:10.37,2013-03-21 04:55:00,
2013-03-21 01:00:00,36.7,26.0,29.78,WNW,302,6.9,6.9,65,0.00,FEW,SCT,0.00,WeatherDisplay:10.37,2013-03-21 05:00:00,
2013-03-21 01:05:00,36.7,26.0,29.78,WNW,298,3.0,3.0,65,0.00,FEW,SCT,0.00,WeatherDisplay:10.37,2013-03-21 05:05:00,
2013-03-21 01:10:00,36.8,25.7,29.78,NE,44,5.8,5.8,64,0.00,FEW,SCT,0.00,WeatherDisplay:10.37,2013-03-21 05:10:00,
2013-03-21 01:15:00,36.5,25.5,29.77,NE,45,6.5,6.5,64,0.00,FEW,SCT,0.00,WeatherDisplay:10.37,2013-03-21 05:15:00,
2013-03-21 01:20:00,36.6,25.5,29.77,NW,320,6.9,6.9,64,0.00,FEW,SCT,0.00,WeatherDisplay:10.37,2013-03-21 05:20:00,
2013-03-21 01:25:00,36.5,25.1,29.77,ENE,65,4.6,4.6,63,0.00,FEW,SCT,0.00,WeatherDisplay:10.37,2013-03-21 05:25:00,
2013-03-21 01:30:00,36.4,25.0,29.77,NE,54,5.8,5.8,63,0.00,FEW,SCT,0.00,WeatherDisplay:10.37,2013-03-21 05:30:00,
2013-03-21 01:35:00,36.2,24.8,29.77,NNW,340,6.9,6.9,63,0.00,FEW,SCT,0.00,WeatherDisplay:10.37,2013-03-21 05:35:00,
2013-03-21 01:40:00,36.0,24.2,29.76,NE,56,11.5,11.5,62,0.00,FEW,SCT,0.00,WeatherDisplay:10.37,2013-03-21 05:40:00,
2013-03-21 01:45:00,36.0,23.8,29.76,NNW,346,8.1,8.1,61,0.00,FEW,SCT,0.00,WeatherDisplay:10.37,2013-03-21 05:45:00,
2013-03-21 01:50:00,35.6,23.4,29.76,NNW,339,6.9,6.9,61,0.00,FEW,SCT,0.00,WeatherDisplay:10.37,2013-03-21 05:50:00,
2013-03-21 01:55:00,35.6,23.4,29.76,NE,48,5.8,5.8,61,0.00,FEW,SCT,0.00,WeatherDisplay:10.37,2013-03-21 05:55:00,
2013-03-21 02:00:00,35.3,23.2,29.75,NE,56,3.5,3.5,61,0.00,FEW,SCT,0.00,WeatherDisplay:10.37,2013-03-21 06:00:00,
2013-03-21 02:05:00,35.1,23.0,29.75,NE,56,4.6,4.6,61,0.00,BKN,SCT,0.00,WeatherDisplay:10.37,2013-03-21 06:05:00,
2013-03-21 02:10:00,35.0,22.9,29.75,NE,40,5.8,5.8,61,0.00,BKN,SCT,0.00,WeatherDisplay:10.37,2013-03-21 06:10:00,
2013-03-21 02:15:00,35.0,22.9,29.75,NNE,13,5.9,5.9,61,0.00,BKN,SCT,0.00,WeatherDisplay:10.37,2013-03-21 06:15:00,
2013-03-21 02:20:00,34.8,23.1,29.75,WSW,254,8.1,8.1,62,0.00,BKN,SCT,0.00,WeatherDisplay:10.37,2013-03-21 06:20:00,
2013-03-21 02:25:00,34.5,22.4,29.75,ENE,76,4.6,4.6,61,0.00,BKN,SCT,0.00,WeatherDisplay:10.37,2013-03-21 06:25:00,
2013-03-21 02:30:00,34.6,22.9,29.75,ENE,59,4.6,4.6,62,0.00,BKN,SCT,0.00,WeatherDisplay:10.37,2013-03-21 06:30:00,
2013-03-21 02:35:00,34.5,22.8,29.75,NNE,21,5.8,5.8,62,0.00,BKN,SCT,0.00,WeatherDisplay:10.37,2013-03-21 06:35:00,
2013-03-21 02:40:00,34.3,22.6,29.75,NNE,14,4.6,4.6,62,0.00,BKN,SCT,0.00,WeatherDisplay:10.37,2013-03-21 06:40:00,
2013-03-21 02:45:00,34.2,22.9,29.75,ENE,68,3.5,3.5,63,0.00,BKN,SCT,0.00,WeatherDisplay:10.37,2013-03-21 06:45:00,
2013-03-21 02:50:00,34.3,23.0,29.75,NE,48,3.7,3.7,63,0.00,BKN,SCT,0.00,WeatherDisplay:10.37,2013-03-21 06:50:00,
2013-03-21 02:55:00,34.3,23.0,29.75,WNW,291,4.6,4.6,63,0.00,BKN,SCT,0.00,WeatherDisplay:10.37,2013-03-21 06:55:00,
2013-03-21 03:00:00,34.3,23.0,29.75,ENE,75,4.6,4.6,63,0.00,BKN,SCT,0.00,WeatherDisplay:10.37,2013-03-21 07:00:00,
2013-03-21 03:05:00,34.3,23.4,29.75,NE,55,3.5,3.5,64,0.00,FEW,SCT,0.00,WeatherDisplay:10.37,2013-03-21 07:05:00,
2013-03-21 03:10:00,34.2,23.3,29.75,East,82,8.1,8.1,64,0.00,FEW,SCT,0.00,WeatherDisplay:10.37,2013-03-21 07:10:00,
2013-03-21 03:15:00,34.1,23.2,29.74,ENE,65,3.5,3.5,64,0.00,FEW,SCT,0.00,WeatherDisplay:10.37,2013-03-21 07:15:00,
2013-03-21 03:20:00,33.9,22.6,29.74,WNW,296,3.5,3.5,63,0.00,FEW,SCT,0.00,WeatherDisplay:10.37,2013-03-21 07:20:00,
2013-03-21 03:25:00,33.9,22.6,29.74,ENE,71,8.1,8.1,63,0.00,FEW,SCT,0.00,WeatherDisplay:10.37,2013-03-21 07:25:00,
2013-03-21 03:30:00,33.8,22.5,29.74,ENE,59,8.1,8.1,63,0.00,FEW,SCT,0.00,WeatherDisplay:10.37,2013-03-21 07:30:00,
2013-03-21 03:35:00,33.7,22.4,29.74,East,86,5.8,5.8,63,0.00,FEW,SCT,0.00,WeatherDisplay:10.37,2013-03-21 07:35:00,
2013-03-21 03:40:00,33.7,22.4,29.74,NNE,20,10.4,10.4,63,0.00,FEW,SCT,0.00,WeatherDisplay:10.37,2013-03-21 07:40:00,
2013-03-21 03:45:00,33.5,22.2,29.74,South,186,4.6,4.6,63,0.00,FEW,SCT,0.00,WeatherDisplay:10.37,2013-03-21 07:45:00,
2013-03-21 03:50:00,33.1,21.8,29.74,NE,51,2.3,2.3,63,0.00,FEW,SCT,0.00,WeatherDisplay:10.37,2013-03-21 07:50:00,
2013-03-21 03:55:00,32.9,21.7,29.74,ENE,69,6.9,6.9,63,0.00,FEW,SCT,0.00,WeatherDisplay:10.37,2013-03-21 07:55:00,
2013-03-21 04:00:00,32.6,21.7,29.73,NNW,330,5.8,5.8,64,0.00,FEW,SCT,0.00,WeatherDisplay:10.37,2013-03-21 08:00:00,
2013-03-21 04:05:00,32.3,21.1,29.73,ESE,116,10.4,10.4,63,0.00,SCT,,0.00,WeatherDisplay:10.37,2013-03-21 08:05:00,
2013-03-21 04:10:00,32.1,21.3,29.73,WSW,241,6.9,6.9,64,0.00,SCT,,0.00,WeatherDisplay:10.37,2013-03-21 08:10:00,
2013-03-21 04:15:00,31.8,21.0,29.73,NNW,346,4.6,4.6,64,0.00,SCT,,0.00,WeatherDisplay:10.37,2013-03-21 08:15:00,
2013-03-21 04:20:00,31.7,20.9,29.73,NNW,342,3.5,3.5,64,0.00,SCT,,0.00,WeatherDisplay:10.37,2013-03-21 08:20:00,
2013-03-21 04:25:00,31.6,21.2,29.73,NE,38,9.2,9.2,65,0.00,SCT,,0.00,WeatherDisplay:10.37,2013-03-21 08:25:00,
2013-03-21 04:31:00,31.6,21.2,29.73,WNW,284,6.9,6.9,65,0.00,SCT,,0.00,WeatherDisplay:10.37,2013-03-21 08:31:00,
2013-03-21 04:36:00,31.5,21.1,29.73,East,86,1.1,1.4,65,0.00,SCT,,0.00,WeatherDisplay:10.37,2013-03-21 08:36:00,
2013-03-21 04:41:00,31.2,20.8,29.73,SE,138,10.4,10.4,65,0.00,SCT,,0.00,WeatherDisplay:10.37,2013-03-21 08:41:00,
2013-03-21 04:46:00,31.0,20.6,29.73,NNW,332,9.2,9.2,65,0.00,SCT,,0.00,WeatherDisplay:10.37,2013-03-21 08:46:00,
2013-03-21 04:51:00,31.1,20.7,29.73,NE,49,8.1,8.1,65,0.00,SCT,,0.00,WeatherDisplay:10.37,2013-03-21 08:51:00,
2013-03-21 04:56:00,31.0,20.6,29.74,SSW,203,6.9,6.9,65,0.00,SCT,,0.00,WeatherDisplay:10.37,2013-03-21 08:56:00,
2013-03-21 05:01:00,31.1,20.3,29.74,SSW,193,6.9,6.9,64,0.00,SCT,,0.00,WeatherDisplay:10.37,2013-03-21 09:01:00,
2013-03-21 05:06:00,31.0,20.2,29.74,ENE,75,4.6,4.6,64,0.00,FEW,SCT,0.00,WeatherDisplay:10.37,2013-03-21 09:06:00,
2013-03-21 05:11:00,31.0,20.2,29.74,South,174,6.9,6.9,64,0.00,FEW,SCT,0.00,WeatherDisplay:10.37,2013-03-21 09:11:00,
2013-03-21 05:16:00,31.0,19.9,29.74,WSW,243,10.4,10.4,63,0.00,FEW,SCT,0.00,WeatherDisplay:10.37,2013-03-21 09:16:00,
2013-03-21 05:21:00,30.9,19.8,29.74,West,260,5.8,5.8,63,0.00,FEW,SCT,0.00,WeatherDisplay:10.37,2013-03-21 09:21:00,
2013-03-21 05:26:00,30.8,19.7,29.74,NNE,31,3.5,3.5,63,0.00,FEW,SCT,0.00,WeatherDisplay:10.37,2013-03-21 09:26:00,
2013-03-21 05:31:00,30.6,19.8,29.75,NNE,31,2.3,2.3,64,0.00,FEW,SCT,0.00,WeatherDisplay:10.37,2013-03-21 09:31:00,
2013-03-21 05:36:00,30.7,19.9,29.74,NW,322,2.3,2.3,64,0.00,FEW,SCT,0.00,WeatherDisplay:10.37,2013-03-21 09:36:00,
2013-03-21 05:41:00,30.8,20.0,29.75,South,188,2.5,2.5,64,0.00,FEW,SCT,0.00,WeatherDisplay:10.37,2013-03-21 09:41:00,
2013-03-21 05:46:00,30.9,20.1,29.75,SE,131,2.3,2.3,64,0.00,FEW,SCT,0.00,WeatherDisplay:10.37,2013-03-21 09:46:00,
2013-03-21 05:51:00,30.9,19.8,29.75,WNW,292,1.1,0.0,63,0.00,FEW,SCT,0.00,WeatherDisplay:10.37,2013-03-21 09:51:00,
2013-03-21 05:56:00,30.7,19.6,29.75,SSW,203,4.6,4.6,63,0.00,FEW,SCT,0.00,WeatherDisplay:10.37,2013-03-21 09:56:00,
2013-03-21 06:01:00,30.8,19.7,29.75,ESE,107,3.1,3.1,63,0.00,FEW,SCT,0.00,WeatherDisplay:10.37,2013-03-21 10:01:00,
2013-03-21 06:06:00,30.7,19.2,29.75,ESE,103,2.3,2.3,62,0.00,FEW,SCT,0.00,WeatherDisplay:10.37,2013-03-21 10:06:00,
2013-03-21 06:11:00,30.5,19.4,29.75,SSW,193,5.8,5.8,63,0.00,FEW,SCT,0.00,WeatherDisplay:10.37,2013-03-21 10:11:00,
2013-03-21 06:16:00,30.3,18.8,29.75,ENE,73,1.6,1.6,62,0.00,FEW,SCT,0.00,WeatherDisplay:10.37,2013-03-21 10:16:00,
2013-03-21 06:21:00,30.4,18.5,29.75,NW,322,9.2,9.2,61,0.00,FEW,SCT,0.00,WeatherDisplay:10.37,2013-03-21 10:21:00,
2013-03-21 06:26:00,30.3,18.0,29.75,SSE,160,10.4,10.4,60,0.00,FEW,SCT,0.00,WeatherDisplay:10.37,2013-03-21 10:26:00,
2013-03-21 06:31:00,30.1,17.9,29.75,NE,40,5.4,5.4,60,0.00,FEW,SCT,0.00,WeatherDisplay:10.37,2013-03-21 10:31:00,
2013-03-21 06:36:00,30.2,18.0,29.76,NNW,328,3.5,3.5,60,0.00,FEW,SCT,0.00,WeatherDisplay:10.37,2013-03-21 10:36:00,
2013-03-21 06:41:00,30.2,18.0,29.76,ENE,69,8.1,8.1,60,0.00,FEW,SCT,0.00,WeatherDisplay:10.37,2013-03-21 10:41:00,
2013-03-21 06:46:00,30.2,18.0,29.76,ENE,65,6.9,6.9,60,0.00,FEW,SCT,0.00,WeatherDisplay:10.37,2013-03-21 10:46:00,
2013-03-21 06:51:00,30.1,17.9,29.76,WSW,257,8.1,8.1,60,0.00,FEW,SCT,0.00,WeatherDisplay:10.37,2013-03-21 10:51:00,
2013-03-21 06:56:00,30.1,17.9,29.76,NNW,330,2.3,2.3,60,0.00,FEW,SCT,0.00,WeatherDisplay:10.37,2013-03-21 10:56:00,
2013-03-21 07:01:00,30.1,17.9,29.76,SSE,165,5.8,5.8,60,0.00,BKN,SCT,0.00,WeatherDisplay:10.37,2013-03-21 11:01:00,
2013-03-21 07:06:00,29.8,17.6,29.76,SSW,202,4.6,4.6,60,0.00,BKN,SCT,0.00,WeatherDisplay:10.37,2013-03-21 11:06:00,
2013-03-21 07:11:00,29.7,17.9,29.76,South,179,3.5,3.5,61,0.00,BKN,SCT,0.00,WeatherDisplay:10.37,2013-03-21 11:11:00,
2013-03-21 07:16:00,29.4,17.2,29.77,ESE,119,3.5,3.5,60,0.00,BKN,SCT,0.00,WeatherDisplay:10.37,2013-03-21 11:16:00,
2013-03-21 07:22:00,29.3,17.1,29.77,North,11,3.5,3.5,60,0.00,BKN,SCT,0.00,WeatherDisplay:10.37,2013-03-21 11:22:00,
2013-03-21 07:27:00,29.2,17.0,29.77,NE,52,3.5,3.5,60,0.00,BKN,SCT,0.00,WeatherDisplay:10.37,2013-03-21 11:27:00,
2013-03-21 07:32:00,29.2,17.0,29.77,NNE,30,6.9,6.9,60,0.00,BKN,SCT,0.00,WeatherDisplay:10.37,2013-03-21 11:32:00,
2013-03-21 07:37:00,29.0,16.8,29.77,ENE,61,3.5,0.0,60,0.00,BKN,SCT,0.00,WeatherDisplay:10.37,2013-03-21 11:37:00,
2013-03-21 07:42:00,29.0,16.8,29.77,WSW,237,2.3,2.3,60,0.00,BKN,SCT,0.00,WeatherDisplay:10.37,2013-03-21 11:42:00,
2013-03-21 07:47:00,28.9,17.1,29.77,West,265,2.3,2.3,61,0.00,BKN,SCT,0.00,WeatherDisplay:10.37,2013-03-21 11:47:00,
2013-03-21 07:52:00,29.0,16.8,29.77,East,82,5.8,5.8,60,0.00,BKN,SCT,0.00,WeatherDisplay:10.37,2013-03-21 11:52:00,
2013-03-21 07:57:00,29.0,17.2,29.78,West,275,5.8,5.8,61,0.00,BKN,SCT,0.00,WeatherDisplay:10.37,2013-03-21 11:57:00,
2013-03-21 08:02:00,29.1,17.3,29.77,East,85,4.2,4.2,61,0.00,BKN,SCT,0.00,WeatherDisplay:10.37,2013-03-21 12:02:00,
2013-03-21 08:08:00,29.0,17.2,29.78,WNW,285,3.8,3.8,61,0.00,BKN,SCT,0.00,WeatherDisplay:10.37,2013-03-21 12:08:00,
2013-03-21 08:13:00,29.0,16.8,29.78,NNW,333,3.5,3.5,60,0.00,BKN,SCT,0.00,WeatherDisplay:10.37,2013-03-21 12:13:00,
2013-03-21 08:18:00,28.8,16.6,29.78,SSE,160,3.5,0.0,60,0.00,BKN,SCT,0.00,WeatherDisplay:10.37,2013-03-21 12:18:00,
2013-03-21 08:23:00,28.9,16.7,29.79,ENE,66,1.1,1.1,60,0.00,BKN,SCT,0.00,WeatherDisplay:10.37,2013-03-21 12:23:00,
2013-03-21 08:28:00,29.0,16.4,29.79,ENE,68,5.5,5.5,59,0.00,BKN,SCT,0.00,WeatherDisplay:10.37,2013-03-21 12:28:00,
2013-03-21 08:33:00,29.3,16.3,29.79,NNE,30,6.9,6.9,58,0.00,BKN,SCT,0.00,WeatherDisplay:10.37,2013-03-21 12:33:00,
2013-03-21 08:38:00,29.3,16.7,29.79,ENE,71,4.0,4.0,59,0.00,BKN,SCT,0.00,WeatherDisplay:10.37,2013-03-21 12:38:00,
2013-03-21 08:43:00,29.3,16.7,29.79,ENE,73,0.0,0.0,59,0.00,BKN,SCT,0.00,WeatherDisplay:10.37,2013-03-21 12:43:00,
2013-03-21 08:48:00,29.6,17.0,29.80,NNE,30,4.6,4.6,59,0.00,BKN,SCT,0.00,WeatherDisplay:10.37,2013-03-21 12:48:00,
2013-03-21 08:53:00,29.9,16.9,29.80,North,356,4.6,4.6,58,0.00,BKN,SCT,0.00,WeatherDisplay:10.37,2013-03-21 12:53:00,
2013-03-21 08:58:00,30.2,16.4,29.80,NW,326,5.8,5.8,56,0.00,BKN,SCT,0.00,WeatherDisplay:10.37,2013-03-21 12:58:00,
2013-03-21 09:03:00,30.6,16.7,29.80,SSE,160,3.5,3.5,56,0.00,SCT,,0.00,WeatherDisplay:10.37,2013-03-21 13:03:00,
2013-03-21 09:08:00,31.0,17.1,29.80,NE,40,9.2,9.2,56,0.00,SCT,,0.00,WeatherDisplay:10.37,2013-03-21 13:08:00,
2013-03-21 09:13:00,31.3,16.5,29.80,NE,34,4.6,4.6,54,0.00,SCT,,0.00,WeatherDisplay:10.37,2013-03-21 13:13:00,
2013-03-21 09:18:00,31.3,16.5,29.80,NE,48,8.1,8.1,54,0.00,SCT,,0.00,WeatherDisplay:10.37,2013-03-21 13:18:00,
2013-03-21 09:23:00,31.6,16.4,29.80,West,263,6.9,6.9,53,0.00,SCT,,0.00,WeatherDisplay:10.37,2013-03-21 13:23:00,
2013-03-21 09:28:00,31.6,16.4,29.80,ENE,68,3.9,3.9,53,0.00,SCT,,0.00,WeatherDisplay:10.37,2013-03-21 13:28:00,
2013-03-21 09:33:00,31.7,16.5,29.80,ENE,69,6.9,6.9,53,0.00,SCT,,0.00,WeatherDisplay:10.37,2013-03-21 13:33:00,
2013-03-21 09:38:00,31.8,16.6,29.80,North,356,6.9,6.9,53,0.00,SCT,,0.00,WeatherDisplay:10.37,2013-03-21 13:38:00,
2013-03-21 09:43:00,32.1,16.9,29.80,NNE,20,5.0,5.0,53,0.00,SCT,,0.00,WeatherDisplay:10.37,2013-03-21 13:43:00,
2013-03-21 09:48:00,32.6,16.4,29.81,North,350,8.1,8.1,51,0.00,SCT,,0.00,WeatherDisplay:10.37,2013-03-21 13:48:00,
2013-03-21 09:53:00,32.1,16.0,29.81,NE,48,11.5,11.5,51,0.00,SCT,,0.00,WeatherDisplay:10.37,2013-03-21 13:53:00,
2013-03-21 09:58:00,32.2,16.1,29.81,NW,318,12.7,12.7,51,0.00,SCT,,0.00,WeatherDisplay:10.37,2013-03-21 13:58:00,
2013-03-21 10:03:00,32.3,16.6,29.81,SE,136,6.9,6.9,52,0.00,SCT,,0.00,WeatherDisplay:10.37,2013-03-21 14:03:00,
2013-03-21 10:08:00,32.6,16.9,29.81,ENE,58,11.1,11.1,52,0.00,SCT,,0.00,WeatherDisplay:10.37,2013-03-21 14:08:00,
2013-03-21 10:13:00,32.6,16.4,29.81,NNE,18,6.9,6.9,51,0.00,SCT,,0.00,WeatherDisplay:10.37,2013-03-21 14:13:00,
2013-03-21 10:18:00,32.6,16.9,29.81,ENE,78,3.6,3.6,52,0.00,SCT,,0.00,WeatherDisplay:10.37,2013-03-21 14:18:00,
2013-03-21 10:23:00,33.0,17.3,29.81,NW,316,8.1,8.1,52,0.00,SCT,,0.00,WeatherDisplay:10.37,2013-03-21 14:23:00,
2013-03-21 10:28:00,33.2,17.0,29.81,SE,137,9.2,9.2,51,0.00,SCT,,0.00,WeatherDisplay:10.37,2013-03-21 14:28:00,
2013-03-21 10:33:00,33.3,16.6,29.81,NE,37,12.7,12.7,50,0.00,SCT,,0.00,WeatherDisplay:10.37,2013-03-21 14:33:00,
2013-03-21 10:38:00,33.5,16.8,29.81,NE,56,11.5,11.5,50,0.00,SCT,,0.00,WeatherDisplay:10.37,2013-03-21 14:38:00,
2013-03-21 10:43:00,33.6,16.9,29.81,NNW,328,9.3,9.3,50,0.00,SCT,,0.00,WeatherDisplay:10.37,2013-03-21 14:43:00,
2013-03-21 10:48:00,34.0,16.8,29.81,NE,37,6.9,6.9,49,0.00,SCT,,0.00,WeatherDisplay:10.37,2013-03-21 14:48:00,
2013-03-21 10:53:00,34.4,17.2,29.81,North,0,6.9,6.9,49,0.00,SCT,,0.00,WeatherDisplay:10.37,2013-03-21 14:53:00,
2013-03-21 10:58:00,34.3,16.6,29.81,North,0,10.4,10.4,48,0.00,SCT,,0.00,WeatherDisplay:10.37,2013-03-21 14:58:00,
2013-03-21 11:04:00,34.6,16.9,29.81,ENE,62,3.5,3.5,48,0.00,BKN,SCT,0.00,WeatherDisplay:10.37,2013-03-21 15:04:00,
2013-03-21 11:09:00,34.0,17.3,29.81,NNW,329,6.9,6.9,50,0.00,BKN,SCT,0.00,WeatherDisplay:10.37,2013-03-21 15:09:00,
2013-03-21 11:14:00,33.6,16.9,29.81,ENE,62,3.5,3.5,50,0.00,BKN,SCT,0.00,WeatherDisplay:10.37,2013-03-21 15:14:00,
2013-03-21 11:19:00,33.1,16.4,29.81,East,82,9.2,9.2,50,0.00,BKN,SCT,0.00,WeatherDisplay:10.37,2013-03-21 15:19:00,
2013-03-21 11:24:00,32.7,15.6,29.81,NE,40,9.2,9.2,49,0.00,BKN,SCT,0.00,WeatherDisplay:10.37,2013-03-21 15:24:00,
2013-03-21 11:29:00,33.3,16.6,29.81,NW,318,5.8,5.8,50,0.00,BKN,SCT,0.00,WeatherDisplay:10.37,2013-03-21 15:29:00,
2013-03-21 11:34:00,33.8,15.7,29.81,ENE,64,6.9,6.9,47,0.00,BKN,SCT,0.00,WeatherDisplay:10.37,2013-03-21 15:34:00,
2013-03-21 11:39:00,33.9,15.7,29.81,NNW,330,3.7,3.7,47,0.00,BKN,SCT,0.00,WeatherDisplay:10.37,2013-03-21 15:39:00,
2013-03-21 11:44:00,34.8,17.1,29.81,NNW,335,6.9,6.9,48,0.00,BKN,SCT,0.00,WeatherDisplay:10.37,2013-03-21 15:44:00,
2013-03-21 11:49:00,35.5,17.2,29.81,NE,56,11.5,11.5,47,0.00,BKN,SCT,0.00,WeatherDisplay:10.37,2013-03-21 15:49:00,
2013-03-21 11:54:00,35.6,16.8,29.81,ENE,76,6.9,6.9,46,0.00,BKN,SCT,0.00,WeatherDisplay:10.37,2013-03-21 15:54:00,
2013-03-21 11:59:00,34.8,15.1,29.81,NNE,32,5.8,5.8,44,0.00,BKN,SCT,0.00,WeatherDisplay:10.37,2013-03-21 15:59:00,
2013-03-21 12:04:00,34.0,14.8,29.81,NE,40,8.1,8.1,45,0.00,OVC,SCT,0.00,WeatherDisplay:10.37,2013-03-21 16:04:00,
2013-03-21 12:09:00,34.1,15.9,29.81,East,83,5.3,5.3,47,0.00,OVC,SCT,0.00,WeatherDisplay:10.37,2013-03-21 16:09:00,
2013-03-21 12:14:00,34.5,15.8,29.81,ENE,66,8.1,8.1,46,0.00,OVC,SCT,0.00,WeatherDisplay:10.37,2013-03-21 16:14:00,
2013-03-21 12:19:00,35.0,16.3,29.81,NNE,28,3.5,3.5,46,0.00,OVC,SCT,0.00,WeatherDisplay:10.37,2013-03-21 16:19:00,
2013-03-21 12:24:00,34.7,15.5,29.81,NNW,340,4.6,4.6,45,0.00,OVC,SCT,0.00,WeatherDisplay:10.37,2013-03-21 16:24:00,
2013-03-21 12:29:00,34.6,15.4,29.81,ENE,69,9.2,9.2,45,0.00,OVC,SCT,0.00,WeatherDisplay:10.37,2013-03-21 16:29:00,
2013-03-21 12:34:00,34.2,15.0,29.81,NE,37,10.4,10.4,45,0.00,OVC,SCT,0.00,WeatherDisplay:10.37,2013-03-21 16:34:00,
2013-03-21 12:39:00,34.0,15.3,29.81,East,86,2.3,2.3,46,0.00,OVC,SCT,0.00,WeatherDisplay:10.37,2013-03-21 16:39:00,
2013-03-21 12:44:00,34.6,16.9,29.81,ENE,66,6.9,6.9,48,0.00,OVC,SCT,0.00,WeatherDisplay:10.37,2013-03-21 16:44:00,
2013-03-21 12:49:00,34.9,16.2,29.81,NNE,25,8.1,8.1,46,0.00,OVC,SCT,0.00,WeatherDisplay:10.37,2013-03-21 16:49:00,
2013-03-21 12:54:00,35.7,17.4,29.81,North,4,3.5,3.5,47,0.00,OVC,SCT,0.00,WeatherDisplay:10.37,2013-03-21 16:54:00,
2013-03-21 12:59:00,36.6,17.2,29.80,ESE,110,8.1,8.1,45,0.00,OVC,SCT,0.00,WeatherDisplay:10.37,2013-03-21 16:59:00,
2013-03-21 13:04:00,37.7,19.2,29.80,East,90,4.6,4.6,47,0.00,OVC,SCT,0.00,WeatherDisplay:10.37,2013-03-21 17:04:00,
2013-03-21 13:09:00,38.8,19.2,29.80,NNW,329,12.7,12.7,45,0.00,OVC,SCT,0.00,WeatherDisplay:10.37,2013-03-21 17:09:00,
2013-03-21 13:14:00,39.5,19.3,29.80,ENE,68,16.1,16.1,44,0.00,OVC,SCT,0.00,WeatherDisplay:10.37,2013-03-21 17:14:00,
2013-03-21 13:19:00,39.8,19.1,29.80,East,82,11.5,11.5,43,0.00,OVC,SCT,0.00,WeatherDisplay:10.37,2013-03-21 17:19:00,
2013-03-21 13:24:00,39.9,18.6,29.79,NE,48,9.2,9.2,42,0.00,OVC,SCT,0.00,WeatherDisplay:10.37,2013-03-21 17:24:00,
2013-03-21 13:29:00,39.6,19.4,29.80,NE,34,9.2,9.2,44,0.00,OVC,SCT,0.00,WeatherDisplay:10.37,2013-03-21 17:29:00,
2013-03-21 13:34:00,39.6,18.9,29.80,NNE,17,10.4,10.4,43,0.00,OVC,SCT,0.00,WeatherDisplay:10.37,2013-03-21 17:34:00,
2013-03-21 13:39:00,39.7,19.0,29.80,North,357,10.4,10.4,43,0.00,OVC,SCT,0.00,WeatherDisplay:10.37,2013-03-21 17:39:00,
2013-03-21 13:44:00,39.2,18.0,29.80,NE,47,11.5,11.5,42,0.00,OVC,SCT,0.00,WeatherDisplay:10.37,2013-03-21 17:44:00,
2013-03-21 13:49:00,38.8,18.2,29.80,WNW,301,11.5,11.5,43,0.00,OVC,SCT,0.00,WeatherDisplay:10.37,2013-03-21 17:49:00,
2013-03-21 13:54:00,39.0,17.8,29.79,ESE,119,4.6,4.6,42,0.00,OVC,SCT,0.00,WeatherDisplay:10.37,2013-03-21 17:54:00,
2013-03-21 13:59:00,39.6,18.3,29.79,North,357,9.2,9.2,42,0.00,OVC,SCT,0.00,WeatherDisplay:10.37,2013-03-21 17:59:00,
2013-03-21 14:04:00,40.2,18.9,29.79,NNE,16,8.1,8.1,42,0.00,BKN,SCT,0.00,WeatherDisplay:10.37,2013-03-21 18:04:00,
2013-03-21 14:09:00,41.1,20.3,29.79,East,89,9.2,9.2,43,0.00,BKN,SCT,0.00,WeatherDisplay:10.37,2013-03-21 18:09:00,
2013-03-21 14:14:00,41.6,19.0,29.79,NE,48,13.8,13.8,40,0.00,BKN,SCT,0.00,WeatherDisplay:10.37,2013-03-21 18:14:00,
2013-03-21 14:19:00,41.5,19.5,29.78,NNE,24,12.7,12.7,41,0.00,BKN,SCT,0.00,WeatherDisplay:10.37,2013-03-21 18:19:00,
2013-03-21 14:25:00,42.5,21.0,29.78,ENE,62,10.4,10.4,42,0.00,BKN,SCT,0.00,WeatherDisplay:10.37,2013-03-21 18:25:00,
2013-03-21 14:30:00,42.5,18.6,29.78,SE,143,9.2,9.2,38,0.00,BKN,SCT,0.00,WeatherDisplay:10.37,2013-03-21 18:30:00,
2013-03-21 14:35:00,41.6,17.8,29.78,NW,322,10.4,10.4,38,0.00,BKN,SCT,0.00,WeatherDisplay:10.37,2013-03-21 18:35:00,
2013-03-21 14:40:00,41.2,17.5,29.78,South,188,9.2,9.2,38,0.00,BKN,SCT,0.00,WeatherDisplay:10.37,2013-03-21 18:40:00,
2013-03-21 14:45:00,40.9,17.8,29.78,NNW,336,10.4,10.4,39,0.00,BKN,SCT,0.00,WeatherDisplay:10.37,2013-03-21 18:45:00,
2013-03-21 14:50:00,40.3,17.8,29.78,NNW,333,10.8,10.8,40,0.00,BKN,SCT,0.00,WeatherDisplay:10.37,2013-03-21 18:50:00,
2013-03-21 14:55:00,39.4,17.0,29.78,WSW,256,16.1,16.1,40,0.00,BKN,SCT,0.00,WeatherDisplay:10.37,2013-03-21 18:55:00,
2013-03-21 15:00:00,38.6,16.3,29.79,WSW,250,11.5,11.5,40,0.00,BKN,SCT,0.00,WeatherDisplay:10.37,2013-03-21 19:00:00,
2013-03-21 15:05:00,37.8,15.6,29.79,ENE,61,13.8,13.8,40,0.00,SCT,,0.00,WeatherDisplay:10.37,2013-03-21 19:05:00,
2013-03-21 15:10:00,37.0,16.0,29.78,North,11,10.1,10.1,42,0.00,SCT,,0.00,WeatherDisplay:10.37,2013-03-21 19:10:00,
2013-03-21 15:15:00,37.0,16.0,29.79,North,4,6.9,6.9,42,0.00,SCT,,0.00,WeatherDisplay:10.37,2013-03-21 19:15:00,
2013-03-21 15:20:00,36.9,15.9,29.79,North,6,10.4,10.4,42,0.00,SCT,,0.00,WeatherDisplay:10.37,2013-03-21 19:20:00,
2013-03-21 15:25:00,37.0,16.5,29.79,NE,56,4.6,4.6,43,0.00,SCT,,0.00,WeatherDisplay:10.37,2013-03-21 19:25:00,
2013-03-21 15:30:00,38.1,17.5,29.79,West,281,5.8,5.8,43,0.00,SCT,,0.00,WeatherDisplay:10.37,2013-03-21 19:30:00,
2013-03-21 15:35:00,38.6,16.9,29.79,WNW,285,11.5,11.5,41,0.00,SCT,,0.00,WeatherDisplay:10.37,2013-03-21 19:35:00,
2013-03-21 15:40:00,38.8,16.5,29.79,ENE,73,16.1,16.1,40,0.00,SCT,,0.00,WeatherDisplay:10.37,2013-03-21 19:40:00,
2013-03-21 15:45:00,38.9,16.0,29.79,North,4,15.0,15.0,39,0.00,SCT,,0.00,WeatherDisplay:10.37,2013-03-21 19:45:00,
2013-03-21 15:50:00,38.3,16.6,29.79,North,2,12.0,18.0,41,0.00,SCT,SCT,0.00,WeatherDisplay:10.37,2013-03-21 19:50:00,
2013-03-21 15:55:00,37.5,16.5,29.80,North,8,2.0,14.0,42,0.00,SCT,SCT,0.00,WeatherDisplay:10.37,2013-03-21 19:55:00,
2013-03-21 16:00:00,37.2,16.2,29.80,NE,35,6.9,6.9,42,0.00,SCT,,0.00,WeatherDisplay:10.37,2013-03-21 20:00:00,
2013-03-21 16:05:00,37.4,16.4,29.80,North,356,16.1,16.1,42,0.00,SCT,,0.00,WeatherDisplay:10.37,2013-03-21 20:05:00,
2013-03-21 16:10:00,37.1,16.1,29.80,NNW,330,15.0,15.0,42,0.00,SCT,,0.00,WeatherDisplay:10.37,2013-03-21 20:10:00,
2013-03-21 16:15:00,36.8,15.8,29.80,NW,325,11.5,11.5,42,0.00,SCT,,0.00,WeatherDisplay:10.37,2013-03-21 20:15:00,
2013-03-21 16:20:00,36.7,16.3,29.80,ENE,61,10.4,10.4,43,0.00,SCT,,0.00,WeatherDisplay:10.37,2013-03-21 20:20:00,
2013-03-21 16:25:00,36.8,16.9,29.80,NNE,25,3.5,3.5,44,0.00,SCT,,0.00,WeatherDisplay:10.37,2013-03-21 20:25:00,
2013-03-21 16:30:00,36.7,16.3,29.81,East,80,5.4,5.4,43,0.00,SCT,,0.00,WeatherDisplay:10.37,2013-03-21 20:30:00,
2013-03-21 16:35:00,36.9,16.4,29.81,NNE,16,6.9,6.9,43,0.00,SCT,,0.00,WeatherDisplay:10.37,2013-03-21 20:35:00,
2013-03-21 16:40:00,36.5,15.5,29.81,East,90,13.8,13.8,42,0.00,SCT,,0.00,WeatherDisplay:10.37,2013-03-21 20:40:00,
2013-03-21 16:45:00,36.5,16.1,29.81,ENE,65,10.4,10.4,43,0.00,SCT,,0.00,WeatherDisplay:10.37,2013-03-21 20:45:00,
2013-03-21 16:50:00,35.8,14.9,29.81,NNE,13,15.0,15.0,42,0.00,SCT,,0.00,WeatherDisplay:10.37,2013-03-21 20:50:00,
2013-03-21 16:55:00,35.4,15.1,29.81,NW,326,14.9,14.9,43,0.00,SCT,,0.00,WeatherDisplay:10.37,2013-03-21 20:55:00,
2013-03-21 17:00:00,34.9,14.6,29.81,NE,38,10.4,10.4,43,0.00,SCT,,0.00,WeatherDisplay:10.37,2013-03-21 21:00:00,
2013-03-21 17:05:00,34.9,14.6,29.81,ENE,62,11.9,11.9,43,0.00,BKN,SCT,0.00,WeatherDisplay:10.37,2013-03-21 21:05:00,
2013-03-21 17:10:00,35.0,14.2,29.81,NW,319,8.1,8.1,42,0.00,BKN,SCT,0.00,WeatherDisplay:10.37,2013-03-21 21:10:00,
2013-03-21 17:15:00,35.1,14.8,29.81,North,7,10.4,10.4,43,0.00,BKN,SCT,0.00,WeatherDisplay:10.37,2013-03-21 21:15:00,
2013-03-21 17:20:00,34.9,15.1,29.82,NW,325,12.7,12.7,44,0.00,BKN,SCT,0.00,WeatherDisplay:10.37,2013-03-21 21:20:00,
2013-03-21 17:25:00,34.8,15.6,29.82,NE,34,12.7,12.7,45,0.00,BKN,SCT,0.00,WeatherDisplay:10.37,2013-03-21 21:25:00,
2013-03-21 17:30:00,35.1,16.4,29.82,NW,304,12.7,12.7,46,0.00,BKN,SCT,0.00,WeatherDisplay:10.37,2013-03-21 21:30:00,
2013-03-21 17:35:00,35.5,16.7,29.82,North,3,9.2,9.2,46,0.00,BKN,SCT,0.00,WeatherDisplay:10.37,2013-03-21 21:35:00,
2013-03-21 17:40:00,35.2,16.4,29.82,NE,41,4.6,4.6,46,0.00,BKN,SCT,0.00,WeatherDisplay:10.37,2013-03-21 21:40:00,
2013-03-21 17:45:00,34.5,15.8,29.83,NE,35,8.1,8.1,46,0.00,BKN,SCT,0.00,WeatherDisplay:10.37,2013-03-21 21:45:00,
2013-03-21 17:50:00,34.1,15.9,29.83,NE,38,8.1,8.1,47,0.00,BKN,SCT,0.00,WeatherDisplay:10.37,2013-03-21 21:50:00,
2013-03-21 17:55:00,33.7,15.6,29.83,NE,34,4.6,4.6,47,0.00,BKN,SCT,0.00,WeatherDisplay:10.37,2013-03-21 21:55:00,
2013-03-21 18:00:00,33.6,16.0,29.83,ENE,62,11.5,11.5,48,0.00,BKN,SCT,0.00,WeatherDisplay:10.37,2013-03-21 22:00:00,
2013-03-21 18:05:00,33.4,15.8,29.83,East,89,6.9,6.9,48,0.00,BKN,SCT,0.00,WeatherDisplay:10.37,2013-03-21 22:05:00,
2013-03-21 18:10:00,33.5,15.9,29.84,NE,41,5.8,5.8,48,0.00,BKN,SCT,0.00,WeatherDisplay:10.37,2013-03-21 22:10:00,
2013-03-21 18:15:00,33.5,15.9,29.84,East,92,4.6,4.6,48,0.00,BKN,SCT,0.00,WeatherDisplay:10.37,2013-03-21 22:15:00,
2013-03-21 18:20:00,33.5,15.9,29.84,NE,44,9.2,9.2,48,0.00,BKN,SCT,0.00,WeatherDisplay:10.37,2013-03-21 22:20:00,
2013-03-21 18:25:00,33.6,16.4,29.84,North,11,5.8,5.8,49,0.00,BKN,SCT,0.00,WeatherDisplay:10.37,2013-03-21 22:25:00,
2013-03-21 18:30:00,33.5,15.9,29.84,NNE,25,8.1,8.1,48,0.00,BKN,SCT,0.00,WeatherDisplay:10.37,2013-03-21 22:30:00,
2013-03-21 18:35:00,33.4,15.8,29.84,ENE,71,8.1,8.1,48,0.00,BKN,SCT,0.00,WeatherDisplay:10.37,2013-03-21 22:35:00,
2013-03-21 18:40:00,33.2,15.6,29.85,NNE,18,8.1,8.1,48,0.00,BKN,SCT,0.00,WeatherDisplay:10.37,2013-03-21 22:40:00,
2013-03-21 18:45:00,32.8,15.7,29.85,NNE,13,13.8,13.8,49,0.00,BKN,SCT,0.00,WeatherDisplay:10.37,2013-03-21 22:45:00,
2013-03-21 18:50:00,32.4,16.2,29.85,North,8,10.4,10.4,51,0.00,BKN,SCT,0.00,WeatherDisplay:10.37,2013-03-21 22:50:00,
2013-03-21 18:55:00,32.2,16.5,29.85,WSW,256,12.7,12.7,52,0.00,BKN,SCT,0.00,WeatherDisplay:10.37,2013-03-21 22:55:00,
2013-03-21 19:00:00,32.0,16.3,29.85,ENE,69,6.9,6.9,52,0.00,BKN,SCT,0.00,WeatherDisplay:10.37,2013-03-21 23:00:00,
2013-03-21 19:05:00,32.1,16.9,29.85,NE,38,8.1,8.1,53,0.00,BKN,SCT,0.00,WeatherDisplay:10.37,2013-03-21 23:05:00,
2013-03-21 19:10:00,32.0,16.8,29.85,NE,54,8.1,8.1,53,0.00,BKN,SCT,0.00,WeatherDisplay:10.37,2013-03-21 23:10:00,
2013-03-21 19:15:00,32.0,16.8,29.86,NE,38,5.8,5.8,53,0.00,BKN,SCT,0.00,WeatherDisplay:10.37,2013-03-21 23:15:00,
2013-03-21 19:20:00,31.9,16.7,29.86,North,1,8.9,8.9,53,0.00,BKN,SCT,0.00,WeatherDisplay:10.37,2013-03-21 23:20:00,
2013-03-21 19:25:00,31.9,16.2,29.86,North,353,9.2,9.2,52,0.00,BKN,SCT,0.00,WeatherDisplay:10.37,2013-03-21 23:25:00,
2013-03-21 19:30:00,31.7,16.0,29.86,NNW,337,8.2,8.2,52,0.00,BKN,SCT,0.00,WeatherDisplay:10.37,2013-03-21 23:30:00,
2013-03-21 19:35:00,31.5,16.3,29.86,NE,49,9.2,9.2,53,0.00,BKN,SCT,0.00,WeatherDisplay:10.37,2013-03-21 23:35:00,
2013-03-21 19:40:00,31.1,15.9,29.86,NE,55,9.2,9.2,53,0.00,BKN,SCT,0.00,WeatherDisplay:10.37,2013-03-21 23:40:00,
2013-03-21 19:45:00,30.9,16.2,29.86,NE,37,6.9,6.9,54,0.00,BKN,SCT,0.00,WeatherDisplay:10.37,2013-03-21 23:45:00,
2013-03-21 19:50:00,30.8,16.1,29.86,NE,35,8.1,8.1,54,0.00,BKN,SCT,0.00,WeatherDisplay:10.37,2013-03-21 23:50:00,
2013-03-21 19:55:00,30.6,16.3,29.87,East,95,5.8,5.8,55,0.00,BKN,SCT,0.00,WeatherDisplay:10.37,2013-03-21 23:55:00,
2013-03-21 20:00:00,30.4,16.5,29.87,NE,37,5.0,5.0,56,0.00,BKN,SCT,0.00,WeatherDisplay:10.37,2013-03-22 00:00:00,
2013-03-21 20:05:00,30.2,15.9,29.87,North,356,9.2,9.2,55,0.00,SCT,,0.00,WeatherDisplay:10.37,2013-03-22 00:05:00,
2013-03-21 20:10:00,30.0,15.7,29.87,NE,48,8.1,8.1,55,0.00,SCT,,0.00,WeatherDisplay:10.37,2013-03-22 00:10:00,
2013-03-21 20:15:00,29.9,15.7,29.87,ENE,75,5.8,5.8,55,0.00,SCT,,0.00,WeatherDisplay:10.37,2013-03-22 00:15:00,
2013-03-21 20:20:00,29.8,15.6,29.87,ENE,65,6.9,6.9,55,0.00,SCT,,0.00,WeatherDisplay:10.37,2013-03-22 00:20:00,
2013-03-21 20:25:00,29.5,15.3,29.87,WNW,285,10.4,10.4,55,0.00,SCT,,0.00,WeatherDisplay:10.37,2013-03-22 00:25:00,
2013-03-21 20:30:00,29.6,15.4,29.88,ENE,69,5.8,5.8,55,0.00,SCT,,0.00,WeatherDisplay:10.37,2013-03-22 00:30:00,
2013-03-21 20:35:00,29.5,15.3,29.88,NNE,21,3.5,3.5,55,0.00,SCT,,0.00,WeatherDisplay:10.37,2013-03-22 00:35:00,
2013-03-21 20:40:00,29.6,15.4,29.88,ESE,112,0.0,0.0,55,0.00,SCT,,0.00,WeatherDisplay:10.37,2013-03-22 00:40:00,
2013-03-21 20:45:00,29.5,15.3,29.88,NNE,32,2.3,2.3,55,0.00,SCT,,0.00,WeatherDisplay:10.37,2013-03-22 00:45:00,
2013-03-21 20:50:00,29.4,15.2,29.88,WNW,294,9.2,9.2,55,0.00,SCT,,0.00,WeatherDisplay:10.37,2013-03-22 00:50:00,
2013-03-21 20:55:00,29.1,14.9,29.88,NE,52,8.1,8.1,55,0.00,SCT,,0.00,WeatherDisplay:10.37,2013-03-22 00:55:00,
2013-03-21 21:00:00,29.0,14.8,29.88,North,6,6.9,6.9,55,0.00,SCT,,0.00,WeatherDisplay:10.37,2013-03-22 01:00:00,
2013-03-21 21:05:00,28.8,15.0,29.89,ENE,61,5.8,5.8,56,0.00,SCT,,0.00,WeatherDisplay:10.37,2013-03-22 01:05:00,
2013-03-21 21:10:00,28.9,14.7,29.89,ENE,73,2.3,2.3,55,0.00,SCT,,0.00,WeatherDisplay:10.37,2013-03-22 01:10:00,
2013-03-21 21:15:00,28.9,14.7,29.90,NNE,25,6.9,6.9,55,0.00,SCT,,0.00,WeatherDisplay:10.37,2013-03-22 01:15:00,
2013-03-21 21:20:00,28.8,15.0,29.90,East,90,6.9,6.9,56,0.00,SCT,,0.00,WeatherDisplay:10.37,2013-03-22 01:20:00,
2013-03-21 21:25:00,28.7,14.9,29.90,NE,52,6.9,6.9,56,0.00,SCT,,0.00,WeatherDisplay:10.37,2013-03-22 01:25:00,
2013-03-21 21:30:00,28.7,14.9,29.90,NE,34,4.6,4.6,56,0.00,SCT,,0.00,WeatherDisplay:10.37,2013-03-22 01:30:00,
2013-03-21 21:35:00,28.5,14.8,29.91,WNW,285,3.5,3.5,56,0.00,SCT,,0.00,WeatherDisplay:10.37,2013-03-22 01:35:00,
2013-03-21 21:40:00,28.4,14.7,29.90,East,79,3.5,3.5,56,0.00,SCT,,0.00,WeatherDisplay:10.37,2013-03-22 01:40:00,
2013-03-21 21:45:00,28.3,14.6,29.90,SSE,164,3.5,3.5,56,0.00,SCT,,0.00,WeatherDisplay:10.37,2013-03-22 01:45:00,
2013-03-21 21:50:00,28.0,14.7,29.90,East,99,8.1,8.1,57,0.00,SCT,,0.00,WeatherDisplay:10.37,2013-03-22 01:50:00,
2013-03-21 21:55:00,27.9,14.6,29.91,ESE,119,2.3,2.6,57,0.00,SCT,,0.00,WeatherDisplay:10.37,2013-03-22 01:55:00,
2013-03-21 22:00:00,27.9,14.6,29.91,ENE,58,2.4,2.4,57,0.00,SCT,,0.00,WeatherDisplay:10.37,2013-03-22 02:00:00,
2013-03-21 22:05:00,27.9,14.6,29.91,East,99,4.6,4.6,57,0.00,SCT,,0.00,WeatherDisplay:10.37,2013-03-22 02:05:00,
2013-03-21 22:10:00,27.8,14.5,29.91,ENE,69,6.9,6.9,57,0.00,SCT,,0.00,WeatherDisplay:10.37,2013-03-22 02:10:00,
2013-03-21 22:15:00,27.7,14.4,29.91,NE,45,4.1,4.1,57,0.00,SCT,,0.00,WeatherDisplay:10.37,2013-03-22 02:15:00,
2013-03-21 22:20:00,27.5,14.2,29.91,East,79,4.6,4.6,57,0.00,SCT,,0.00,WeatherDisplay:10.37,2013-03-22 02:20:00,
2013-03-21 22:25:00,27.4,14.1,29.91,ESE,117,6.9,6.9,57,0.00,SCT,,0.00,WeatherDisplay:10.37,2013-03-22 02:25:00,
2013-03-21 22:30:00,27.4,14.5,29.91,NNE,16,2.3,2.3,58,0.00,SCT,,0.00,WeatherDisplay:10.37,2013-03-22 02:30:00,
2013-03-21 22:35:00,27.3,14.4,29.91,NE,48,3.5,3.5,58,0.00,SCT,,0.00,WeatherDisplay:10.37,2013-03-22 02:35:00,
2013-03-21 22:40:00,27.2,13.9,29.92,ENE,73,8.1,8.1,57,0.00,SCT,,0.00,WeatherDisplay:10.37,2013-03-22 02:40:00,
2013-03-21 22:45:00,27.0,14.2,29.92,North,359,7.9,7.9,58,0.00,SCT,,0.00,WeatherDisplay:10.37,2013-03-22 02:45:00,
2013-03-21 22:50:00,26.9,14.1,29.92,ESE,113,8.1,8.1,58,0.00,SCT,,0.00,WeatherDisplay:10.37,2013-03-22 02:50:00,
2013-03-21 22:55:00,26.7,13.9,29.92,NE,37,0.4,0.4,58,0.00,SCT,,0.00,WeatherDisplay:10.37,2013-03-22 02:55:00,
2013-03-21 23:00:00,26.6,13.8,29.92,ENE,72,9.2,9.2,58,0.00,SCT,,0.00,WeatherDisplay:10.37,2013-03-22 03:00:00,
2013-03-21 23:05:00,26.5,13.7,29.93,ENE,68,12.7,12.7,58,0.00,FEW,SCT,0.00,WeatherDisplay:10.37,2013-03-22 03:05:00,
2013-03-21 23:10:00,26.4,13.6,29.93,NE,48,4.6,4.6,58,0.00,FEW,SCT,0.00,WeatherDisplay:10.37,2013-03-22 03:10:00,
2013-03-21 23:15:00,26.4,13.6,29.93,WSW,237,9.2,9.2,58,0.00,FEW,SCT,0.00,WeatherDisplay:10.37,2013-03-22 03:15:00,
2013-03-21 23:20:00,26.2,13.4,29.93,North,3,7.1,7.1,58,0.00,FEW,SCT,0.00,WeatherDisplay:10.37,2013-03-22 03:20:00,
2013-03-21 23:25:00,26.2,13.0,29.93,North,11,5.8,5.8,57,0.00,FEW,SCT,0.00,WeatherDisplay:10.37,2013-03-22 03:25:00,
2013-03-21 23:30:00,26.3,13.1,29.93,ENE,64,8.1,8.1,57,0.00,FEW,SCT,0.00,WeatherDisplay:10.37,2013-03-22 03:30:00,
2013-03-21 23:35:00,26.3,13.1,29.93,ENE,68,3.5,5.5,57,0.00,FEW,SCT,0.00,WeatherDisplay:10.37,2013-03-22 03:35:00,
2013-03-21 23:40:00,26.1,13.3,29.93,NNW,339,6.9,6.9,58,0.00,FEW,SCT,0.00,WeatherDisplay:10.37,2013-03-22 03:40:00,
2013-03-21 23:45:00,26.2,13.0,29.93,NNE,28,6.9,6.9,57,0.00,FEW,SCT,0.00,WeatherDisplay:10.37,2013-03-22 03:45:00,
2013-03-21 23:50:00,26.2,13.4,29.93,North,0,9.6,9.6,58,0.00,FEW,SCT,0.00,WeatherDisplay:10.37,2013-03-22 03:50:00,
2013-03-21 23:55:00,26.2,13.0,29.94,NNE,14,8.1,8.1,57,0.00,FEW,SCT,0.00,WeatherDisplay:10.37,2013-03-22 03:55:00,